Impacts METAR Board
IDs:

KDFW - Dallas-Ft Worth Intl, TX, US

Updated at: 0000 UTC 17 Jul 2019
Potential Impact None Slight Moderate High
Time 16/12Z 16/13Z 16/14Z 16/15Z 16/16Z 16/17Z 16/18Z 16/19Z 16/20Z 16/21Z 16/22Z 16/23Z 17/00Z
Temp80 81 84 87 89 91 93 94 96 96 95 97 93
Dewpt73 73 73 72 73 73 73 73 73 72 71 71 70
Altim29.93 29.94 29.95 29.95 29.96 29.96 29.96 29.95 29.93 29.92 29.91 29.89 29.89
VIS10 10 10 10 10 10 10 10 10 10 10 10 10
CIG-- -- -- -- -- -- 300 -- -- -- -- -- 300
CoverFEWFEWFEWFEWFEWSCTBKNSCTSCTSCTSCTSCTBKN
FltCatVFRVFRVFRVFRVFRVFRVFRVFRVFRVFRVFRVFRVFR
WX--------------------------
WDir200200200220200190190200210170160180180
WSpd12 13 16 17 13 11 13 7 12 10 7 13 12
WGst-- -- -- -- -- -- 19 -- 17 17 18 -- --
Raw hourly METARs
KDFW 161153Z 20012KT 10SM FEW065 27/23 A2993 RMK AO2 SLP124 T02670228 10283 20267 53014
KDFW 161253Z COR 20013KT 10SM FEW065 FEW150 27/23 A2994 RMK AO2 SLP129 ACC DSNT NE T02720228
KDFW 161353Z 20016KT 10SM FEW150 FEW300 29/23 A2995 RMK AO2 SLP131 T02890228
KDFW 161453Z 22017KT 10SM FEW300 31/22 A2995 RMK AO2 SLP132 T03060222 51009
KDFW 161553Z 20013KT 10SM FEW300 32/23 A2996 RMK AO2 SLP134 T03170228
KDFW 161653Z 19011KT 10SM SCT300 33/23 A2996 RMK AO2 SLP136 T03280228
KDFW 161753Z 19013G19KT 10SM FEW040 BKN300 34/23 A2996 RMK AO2 SLP133 T03390228 10339 20267 50001
KDFW 161853Z 20007KT 10SM SCT050 SCT300 34/23 A2995 RMK AO2 SLP133 T03440228
KDFW 161953Z 21012G17KT 10SM SCT050 SCT300 36/23 A2993 RMK AO2 SLP126 T03560228
KDFW 162053Z 17010G17KT 10SM SCT055 SCT250 36/22 A2992 RMK AO2 SLP121 MDT CU ALQDS T03560222 58012
KDFW 162153Z 16007G18KT 10SM FEW060TCU SCT250 35/22 A2991 RMK AO2 SLP116 TCU NE-E MDT CU W-NW T03500217
KDFW 162253Z 18013KT 10SM FEW060 SCT250 SCT300 36/22 A2989 RMK AO2 SLP110 TCU DSNT NW-NE T03610217
KDFW 162353Z 18012KT 10SM FEW060 SCT250 BKN300 34/21 A2989 RMK AO2 SLP112 TCU DSNT N T03390211 10361 20339 55009



Page loaded:  00:19 UTC  |   05:19 PM Pacific  |   06:19 PM Mountain  |   07:19 PM Central  |   08:19 PM Eastern

 

ADVISORIES

FORECASTS

FORECASTS

OBSERVATIONS

USER TOOLS

ABOUT US